createdAt,value
2023-04-19T00:00:52.986Z,6.13
2023-04-19T00:03:21.094Z,7.82
2023-04-19T00:05:49.263Z,9.75
2023-04-19T00:08:17.154Z,6.22
2023-04-19T00:10:46.526Z,8.98
2023-04-19T00:13:14.463Z,5.82
2023-04-19T00:15:42.439Z,5.50
2023-04-19T00:18:10.457Z,7.20
2023-04-19T00:20:40.013Z,6.03
2023-04-19T00:23:07.934Z,7.18
2023-04-19T00:25:36.023Z,6.18
2023-04-19T00:28:05.650Z,6.93
2023-04-19T00:30:33.674Z,7.28
2023-04-19T00:33:01.640Z,5.90
2023-04-19T00:35:29.654Z,4.78
2023-04-19T00:37:57.554Z,5.88
2023-04-19T00:40:25.569Z,5.18
2023-04-19T00:42:53.467Z,5.32
2023-04-19T00:45:22.790Z,7.78
2023-04-19T00:47:52.934Z,8.13
2023-04-19T00:50:21.343Z,5.90
2023-04-19T00:52:49.666Z,8.32
2023-04-19T00:55:17.632Z,6.57
2023-04-19T00:57:45.552Z,4.75
2023-04-19T01:00:15.050Z,5.18
2023-04-19T01:02:44.442Z,4.93
2023-04-19T01:05:13.033Z,5.72
2023-04-19T01:07:41.200Z,5.32
2023-04-19T01:10:10.260Z,5.47
2023-04-19T01:12:38.300Z,4.75
2023-04-19T01:15:07.293Z,5.80
2023-04-19T01:17:36.162Z,7.35
2023-04-19T01:20:09.064Z,9.75
2023-04-19T01:22:40.220Z,8.65
2023-04-19T01:25:09.646Z,7.22
2023-04-19T01:27:37.553Z,7.63
2023-04-19T01:30:06.457Z,9.57
2023-04-19T01:32:34.438Z,8.00
2023-04-19T01:35:02.463Z,8.65
2023-04-19T01:37:31.498Z,9.00
2023-04-19T01:40:01.143Z,8.38
2023-04-19T01:42:29.482Z,6.90
2023-04-19T01:44:57.420Z,6.40
2023-04-19T01:47:25.425Z,7.10
2023-04-19T01:49:53.377Z,6.45
2023-04-19T01:52:21.611Z,7.82
2023-04-19T01:54:49.793Z,6.70
2023-04-19T01:57:19.861Z,6.38
2023-04-19T01:59:48.769Z,8.00
2023-04-19T02:02:16.837Z,5.35
2023-04-19T02:04:44.929Z,6.97
2023-04-19T02:07:12.813Z,5.78
2023-04-19T02:09:40.798Z,5.72
2023-04-19T02:12:08.995Z,6.90
2023-04-19T02:14:38.288Z,6.50
2023-04-19T02:17:06.241Z,5.78
2023-04-19T02:19:34.182Z,6.68
2023-04-19T02:22:02.114Z,7.93
2023-04-19T02:24:30.101Z,6.40
2023-04-19T02:26:58.317Z,6.70
2023-04-19T02:29:26.334Z,6.00
2023-04-19T02:31:55.728Z,7.07
2023-04-19T02:34:23.682Z,4.63
2023-04-19T02:36:51.698Z,5.80
2023-04-19T02:39:19.632Z,8.75
2023-04-19T02:41:47.553Z,6.75
2023-04-19T02:44:15.685Z,6.80
2023-04-19T02:46:49.777Z,5.05
2023-04-19T02:49:19.319Z,9.13
2023-04-19T02:51:47.308Z,5.70
2023-04-19T02:54:16.134Z,5.95
2023-04-19T02:56:46.219Z,5.93
2023-04-19T02:59:14.134Z,6.25
2023-04-19T03:01:42.695Z,6.55
2023-04-19T03:04:10.837Z,5.43
2023-04-19T03:06:42.165Z,5.78
2023-04-19T03:09:10.323Z,5.55
2023-04-19T03:11:38.760Z,6.32
2023-04-19T03:14:06.683Z,7.72
2023-04-19T03:16:34.822Z,6.72
2023-04-19T03:19:02.795Z,6.82
2023-04-19T03:21:35.885Z,8.63
2023-04-19T03:24:05.413Z,7.35
2023-04-19T03:26:33.718Z,7.82
2023-04-19T03:29:03.041Z,9.10
2023-04-19T03:31:43.696Z,8.60
2023-04-19T03:34:14.237Z,7.65
2023-04-19T03:36:45.796Z,10.80
2023-04-19T03:39:15.129Z,11.70
2023-04-19T03:41:46.450Z,9.32
2023-04-19T03:44:25.093Z,9.98
2023-04-19T03:46:54.088Z,9.98
2023-04-19T03:49:26.579Z,11.80
2023-04-19T03:52:05.255Z,11.30
2023-04-19T03:54:36.160Z,13.38
2023-04-19T03:57:06.239Z,9.38
2023-04-19T03:59:38.021Z,10.27
2023-04-19T04:02:07.264Z,9.68
2023-04-19T04:04:35.594Z,9.80
2023-04-19T04:07:03.678Z,9.63
2023-04-19T04:09:31.633Z,10.82
2023-04-19T04:12:02.005Z,11.82
2023-04-19T04:14:31.397Z,11.65
2023-04-19T04:17:00.814Z,9.43
2023-04-19T04:19:28.768Z,10.95
2023-04-19T04:21:56.905Z,11.98
2023-04-19T04:24:26.230Z,12.70
2023-04-19T04:27:20.311Z,11.43
2023-04-19T04:29:53.098Z,12.52
2023-04-19T04:32:23.334Z,14.25
2023-04-19T04:34:55.628Z,13.50
2023-04-19T04:37:34.508Z,12.18
2023-04-19T04:40:04.946Z,11.38
2023-04-19T04:42:35.675Z,11.23
2023-04-19T04:45:04.344Z,11.10
2023-04-19T04:47:34.174Z,14.15
2023-04-19T04:50:06.142Z,13.93
2023-04-19T04:52:34.393Z,15.57
2023-04-19T04:55:15.019Z,13.10
2023-04-19T04:57:46.663Z,10.88
2023-04-19T05:00:21.730Z,13.07
2023-04-19T05:02:58.673Z,13.75
2023-04-19T05:05:27.139Z,11.20
2023-04-19T05:07:56.874Z,13.38
2023-04-19T05:10:24.888Z,11.45
2023-04-19T05:12:55.295Z,12.32
2023-04-19T05:15:23.490Z,12.90
2023-04-19T05:17:55.051Z,13.40
2023-04-19T05:20:23.716Z,13.38
2023-04-19T05:23:01.242Z,12.52
2023-04-19T05:25:29.168Z,11.77
2023-04-19T05:27:59.041Z,13.88
2023-04-19T05:30:31.908Z,12.68
2023-04-19T05:33:00.250Z,13.23
2023-04-19T05:35:28.732Z,12.82
2023-04-19T05:37:57.163Z,13.40
2023-04-19T05:40:25.950Z,12.70
2023-04-19T05:42:54.089Z,13.55
2023-04-19T05:45:24.366Z,14.57
2023-04-19T05:47:52.517Z,15.25
2023-04-19T05:50:40.562Z,14.38
2023-04-19T05:53:26.796Z,13.93
2023-04-19T05:55:56.615Z,13.68
2023-04-19T05:58:24.734Z,12.63
2023-04-19T06:00:54.477Z,13.50
2023-04-19T06:03:24.896Z,15.52
2023-04-19T06:05:54.771Z,18.58
2023-04-19T06:08:22.760Z,20.83
2023-04-19T06:10:55.696Z,20.20
2023-04-19T06:13:25.384Z,20.83
2023-04-19T06:15:55.171Z,20.33
2023-04-19T06:18:23.136Z,28.83
2023-04-19T06:20:51.495Z,27.73
2023-04-19T06:23:19.473Z,30.50
2023-04-19T06:25:49.005Z,25.73
2023-04-19T06:28:17.230Z,21.35
2023-04-19T06:30:45.184Z,24.05
2023-04-19T06:33:14.529Z,27.70
2023-04-19T06:35:42.430Z,21.52
2023-04-19T06:38:10.341Z,21.77
2023-04-19T06:40:38.262Z,19.73
2023-04-19T06:43:06.296Z,23.02
2023-04-19T06:45:34.321Z,24.48
2023-04-19T06:48:02.487Z,25.02
2023-04-19T06:50:32.006Z,18.70
2023-04-19T06:53:00.005Z,20.52
2023-04-19T06:55:28.169Z,20.77
2023-04-19T06:57:56.055Z,24.08
2023-04-19T07:00:24.556Z,19.50
2023-04-19T07:02:52.688Z,16.30
2023-04-19T07:05:20.743Z,17.35
2023-04-19T07:07:49.977Z,16.92
2023-04-19T07:10:18.142Z,16.13
2023-04-19T07:12:46.216Z,17.23
2023-04-19T07:15:14.150Z,17.30
2023-04-19T07:17:42.247Z,14.40
2023-04-19T07:20:10.924Z,12.93
2023-04-19T07:22:38.832Z,13.95
2023-04-19T07:25:09.305Z,14.70
2023-04-19T07:27:37.219Z,13.05
2023-04-19T07:30:05.677Z,16.48
2023-04-19T07:32:33.812Z,17.70
2023-04-19T07:35:02.375Z,13.98
2023-04-19T07:37:31.396Z,13.95
2023-04-19T07:39:59.564Z,14.43
2023-04-19T07:42:30.940Z,14.18
2023-04-19T07:44:59.669Z,14.10
2023-04-19T07:47:27.659Z,17.52
2023-04-19T07:49:56.772Z,14.15
2023-04-19T07:52:24.682Z,11.10
2023-04-19T07:54:52.619Z,12.02
2023-04-19T07:57:20.576Z,13.20
2023-04-19T07:59:49.882Z,12.43
2023-04-19T08:02:19.232Z,11.93
2023-04-19T08:04:49.758Z,10.55
2023-04-19T08:07:18.032Z,12.13
2023-04-19T08:09:46.040Z,12.45
2023-04-19T08:12:26.280Z,13.35
2023-04-19T08:15:13.522Z,11.88
2023-04-19T08:17:50.511Z,13.93
2023-04-19T08:20:19.553Z,11.60
2023-04-19T08:22:47.700Z,13.15
2023-04-19T08:25:16.648Z,13.68
2023-04-19T08:27:44.649Z,13.07
2023-04-19T08:30:14.611Z,12.10
2023-04-19T08:32:42.522Z,11.80
2023-04-19T08:35:11.160Z,11.82
2023-04-19T08:37:39.067Z,13.35
2023-04-19T08:40:08.625Z,14.80
2023-04-19T08:42:37.284Z,11.18
2023-04-19T08:50:28.363Z,11.50
2023-04-19T08:53:12.160Z,10.32
2023-04-19T08:58:28.861Z,11.73
2023-04-19T09:01:17.066Z,12.70
2023-04-19T09:04:09.623Z,11.55
2023-04-19T09:06:43.915Z,12.02
2023-04-19T09:11:53.405Z,13.15
2023-04-19T09:14:23.686Z,13.63
2023-04-19T09:16:52.609Z,11.00
2023-04-19T09:19:25.216Z,13.52
2023-04-19T09:21:54.811Z,11.55
2023-04-19T09:27:12.250Z,11.63
2023-04-19T09:29:40.556Z,12.32
2023-04-19T09:32:08.585Z,10.27
2023-04-19T09:34:52.783Z,12.95
2023-04-19T09:37:38.474Z,15.00
2023-04-19T09:40:23.325Z,13.50
2023-04-19T09:48:03.441Z,10.80
2023-04-19T09:50:34.142Z,9.43
2023-04-19T09:53:08.044Z,11.63
2023-04-19T09:55:52.626Z,11.57
2023-04-19T09:58:31.820Z,8.68
2023-04-19T10:01:15.127Z,11.88
2023-04-19T10:03:46.898Z,14.32
2023-04-19T10:08:51.262Z,14.27
2023-04-19T10:11:21.969Z,15.07
2023-04-19T10:13:51.096Z,12.77
2023-04-19T10:16:20.509Z,9.68
2023-04-19T10:18:49.885Z,9.45
2023-04-19T10:21:21.206Z,11.35
2023-04-19T10:23:49.794Z,10.77
2023-04-19T10:26:17.777Z,11.48
2023-04-19T10:28:45.737Z,11.40
2023-04-19T10:31:14.256Z,11.95
2023-04-19T10:33:43.032Z,9.55
2023-04-19T10:36:12.255Z,17.35
2023-04-19T10:38:43.514Z,15.98
2023-04-19T10:41:16.494Z,11.68
2023-04-19T10:43:48.413Z,11.63
2023-04-19T10:46:36.994Z,8.77
2023-04-19T10:49:06.460Z,12.90
2023-04-19T10:51:36.584Z,10.82
2023-04-19T10:54:07.186Z,10.55
2023-04-19T10:57:05.062Z,9.40
2023-04-19T10:59:34.426Z,10.68
2023-04-19T11:02:04.306Z,10.13
2023-04-19T11:05:01.839Z,9.43
2023-04-19T11:07:29.867Z,10.35
2023-04-19T11:09:59.191Z,10.35
2023-04-19T11:12:27.114Z,10.35
2023-04-19T11:14:57.711Z,11.05
2023-04-19T11:17:27.947Z,11.65
2023-04-19T11:19:57.571Z,10.48
2023-04-19T11:22:33.536Z,7.47
2023-04-19T11:25:13.173Z,9.95
2023-04-19T11:27:42.910Z,11.15
2023-04-19T11:30:13.193Z,10.93
2023-04-19T11:32:46.727Z,11.07
2023-04-19T11:35:15.097Z,10.77
2023-04-19T11:37:43.016Z,9.32
2023-04-19T11:40:16.500Z,10.00
2023-04-19T11:42:45.001Z,9.40
2023-04-19T11:45:26.099Z,10.40
2023-04-19T11:47:57.814Z,9.90
2023-04-19T11:50:33.915Z,10.18
2023-04-19T11:53:10.675Z,11.80
2023-04-19T11:55:40.144Z,11.23
2023-04-19T11:58:09.823Z,10.40
2023-04-19T12:00:38.054Z,10.55
2023-04-19T12:03:06.355Z,9.80
2023-04-19T12:05:34.907Z,8.63
2023-04-19T12:08:04.762Z,11.00
2023-04-19T12:10:33.434Z,13.05
2023-04-19T12:13:03.056Z,8.90
2023-04-19T12:15:43.728Z,10.95
2023-04-19T12:18:11.763Z,9.30
2023-04-19T12:20:45.762Z,10.05
2023-04-19T12:23:14.036Z,8.68
2023-04-19T12:25:42.128Z,12.55
2023-04-19T12:28:11.456Z,11.40
2023-04-19T12:30:40.169Z,9.48
2023-04-19T12:33:08.564Z,8.68
2023-04-19T12:35:37.502Z,8.98
2023-04-19T12:38:05.397Z,10.68
2023-04-19T12:40:33.806Z,8.15
2023-04-19T12:43:01.757Z,11.27
2023-04-19T12:45:31.892Z,9.32
2023-04-19T12:48:01.140Z,8.40
2023-04-19T12:50:29.065Z,8.68
2023-04-19T12:52:57.013Z,5.15
2023-04-19T12:55:25.041Z,6.30
2023-04-19T12:57:52.937Z,4.53
2023-04-19T13:00:21.247Z,4.80
2023-04-19T13:02:50.729Z,5.35
2023-04-19T13:05:18.833Z,4.97
2023-04-19T13:07:46.946Z,4.85
2023-04-19T13:10:15.074Z,5.20
2023-04-19T13:12:43.049Z,4.40
2023-04-19T13:15:11.824Z,4.20
2023-04-19T13:17:39.792Z,5.00
2023-04-19T13:20:10.690Z,3.75
2023-04-19T13:22:38.644Z,4.50
2023-04-19T13:25:07.417Z,7.55
2023-04-19T13:27:35.346Z,5.22
2023-04-19T13:30:03.514Z,4.80
2023-04-19T13:32:31.501Z,4.45
2023-04-19T13:34:59.482Z,4.13
2023-04-19T13:37:28.794Z,4.50
2023-04-19T13:40:06.939Z,5.97
2023-04-19T13:42:43.141Z,4.65
2023-04-19T13:45:11.592Z,5.22
2023-04-19T13:47:39.588Z,3.78
2023-04-19T13:50:08.872Z,2.88
2023-04-19T13:52:38.239Z,3.42
2023-04-19T13:55:06.728Z,4.05
2023-04-19T13:57:34.659Z,2.42
2023-04-19T14:00:02.642Z,3.55
2023-04-19T14:02:35.203Z,4.20
2023-04-19T14:05:04.617Z,3.58
2023-04-19T14:07:32.654Z,4.32
2023-04-19T14:10:02.015Z,4.28
2023-04-19T14:12:29.965Z,5.75
2023-04-19T14:14:57.879Z,6.70
2023-04-19T14:17:26.288Z,5.88
2023-04-19T14:19:54.312Z,7.22
2023-04-19T14:22:22.281Z,5.72
2023-04-19T14:24:50.190Z,6.10
2023-04-19T14:27:19.450Z,6.07
2023-04-19T14:29:47.377Z,6.80
2023-04-19T14:34:46.416Z,6.85
2023-04-19T14:37:14.326Z,6.95
2023-04-19T14:39:42.212Z,6.57
2023-04-19T14:42:10.103Z,11.82
2023-04-19T14:44:39.423Z,10.55
2023-04-19T14:47:07.555Z,8.43
2023-04-19T14:49:35.562Z,8.45
2023-04-19T14:52:04.015Z,5.32
2023-04-19T14:54:32.048Z,5.82
2023-04-19T14:57:00.279Z,6.05
2023-04-19T14:59:29.848Z,5.90
2023-04-19T15:01:59.384Z,7.20
2023-04-19T15:04:27.591Z,7.22
2023-04-19T15:06:55.637Z,9.40
2023-04-19T15:09:23.589Z,6.10
2023-04-19T15:11:51.557Z,6.03
2023-04-19T15:14:19.827Z,5.72
2023-04-19T15:16:47.753Z,5.38
2023-04-19T15:19:17.139Z,4.57
2023-04-19T15:21:45.250Z,5.65
2023-04-19T15:24:13.161Z,5.47
2023-04-19T15:26:43.621Z,3.50
2023-04-19T15:29:12.278Z,4.55
2023-04-19T15:31:40.545Z,4.13
2023-04-19T15:34:08.522Z,4.28
2023-04-19T15:36:37.866Z,4.00
2023-04-19T15:39:05.755Z,3.40
2023-04-19T15:41:33.689Z,3.60
2023-04-19T15:44:01.605Z,4.68
2023-04-19T15:46:29.581Z,3.65
2023-04-19T15:48:57.510Z,6.15
2023-04-19T15:51:25.448Z,5.82
2023-04-19T15:53:54.837Z,10.00
2023-04-19T15:56:23.249Z,6.53
2023-04-19T15:58:51.099Z,8.77
2023-04-19T16:01:19.433Z,7.63
2023-04-19T16:03:47.537Z,7.30
2023-04-19T16:06:15.742Z,9.80
2023-04-19T16:08:43.685Z,6.38
2023-04-19T16:11:13.040Z,4.35
2023-04-19T16:13:40.975Z,5.07
2023-04-19T16:16:09.080Z,4.57
2023-04-19T16:18:37.017Z,6.70
2023-04-19T16:21:05.212Z,4.70
2023-04-19T16:23:33.116Z,5.07
2023-04-19T16:26:01.103Z,6.35
2023-04-19T16:28:30.453Z,3.05
2023-04-19T16:30:58.444Z,8.02
2023-04-19T16:33:26.341Z,4.45
2023-04-19T16:35:54.448Z,6.53
2023-04-19T16:38:22.453Z,10.73
2023-04-19T16:40:50.498Z,5.45
2023-04-19T16:43:20.799Z,4.47
2023-04-19T16:45:50.173Z,3.08
2023-04-19T16:48:18.339Z,7.63
2023-04-19T16:50:46.588Z,8.23
2023-04-19T16:53:14.495Z,5.32
2023-04-19T16:55:42.449Z,11.15
2023-04-19T16:58:10.317Z,8.23
2023-04-19T17:00:39.271Z,9.25
2023-04-19T17:03:09.833Z,6.40
2023-04-19T17:05:37.852Z,7.30
2023-04-19T17:08:06.508Z,5.55
2023-04-19T17:10:34.673Z,5.28
2023-04-19T17:13:02.572Z,6.70
2023-04-19T17:15:31.574Z,4.97
2023-04-19T17:17:59.613Z,5.78
2023-04-19T17:20:29.030Z,3.75
2023-04-19T17:22:57.138Z,4.15
2023-04-19T17:25:25.041Z,4.22
2023-04-19T17:27:52.953Z,4.30
2023-04-19T17:30:20.893Z,4.00
2023-04-19T17:32:48.812Z,5.18
2023-04-19T17:35:17.000Z,6.47
2023-04-19T17:37:46.260Z,4.95
2023-04-19T17:40:14.305Z,5.97
2023-04-19T17:42:42.207Z,5.10
2023-04-19T17:45:11.254Z,6.43
2023-04-19T17:47:39.533Z,5.47
2023-04-19T17:50:09.098Z,5.78
2023-04-19T17:52:37.184Z,3.50
2023-04-19T17:55:07.494Z,4.15
2023-04-19T17:57:35.652Z,4.18
2023-04-19T18:00:06.113Z,3.80
2023-04-19T18:02:37.312Z,4.00
2023-04-19T18:05:05.986Z,3.55
2023-04-19T18:07:34.145Z,4.05
2023-04-19T18:10:02.010Z,3.58
2023-04-19T18:12:31.435Z,3.25
2023-04-19T18:14:59.335Z,2.30
2023-04-19T18:17:27.253Z,2.17
2023-04-19T18:19:55.257Z,2.80
2023-04-19T18:22:23.211Z,1.80
2023-04-19T18:24:51.568Z,2.53
2023-04-19T18:27:19.477Z,3.70
2023-04-19T18:29:52.279Z,2.38
2023-04-19T18:32:21.879Z,3.08
2023-04-19T18:34:49.884Z,1.52
2023-04-19T18:37:18.544Z,1.98
2023-04-19T18:39:46.673Z,1.67
2023-04-19T18:42:14.620Z,1.73
2023-04-19T18:47:14.893Z,1.25
2023-04-19T18:49:52.667Z,1.60
2023-04-19T18:52:27.622Z,1.88
2023-04-19T18:54:58.364Z,1.90
2023-04-19T18:57:27.640Z,2.78
2023-04-19T18:59:57.147Z,5.00
2023-04-19T19:02:27.567Z,4.50
2023-04-19T19:04:58.366Z,7.78
2023-04-19T19:10:02.526Z,7.70
2023-04-19T19:12:33.757Z,5.78
2023-04-19T19:15:01.639Z,3.13
2023-04-19T19:17:31.090Z,4.65
2023-04-19T19:20:01.188Z,2.42
2023-04-19T19:22:29.303Z,4.38
2023-04-19T19:24:57.506Z,4.60
2023-04-19T19:27:25.746Z,3.40
2023-04-19T19:29:53.731Z,3.72
2023-04-19T19:32:22.152Z,4.93
2023-04-19T19:34:56.695Z,3.72
2023-04-19T19:37:29.932Z,5.07
2023-04-19T19:40:02.793Z,5.13
2023-04-19T19:42:32.386Z,5.65
2023-04-19T19:45:00.286Z,4.68
2023-04-19T19:47:30.763Z,5.30
2023-04-19T19:52:31.938Z,5.78
2023-04-19T19:55:00.319Z,6.65
2023-04-19T20:00:17.915Z,6.82
2023-04-19T20:05:20.916Z,6.20
2023-04-19T20:10:20.602Z,6.97
2023-04-19T20:12:48.571Z,7.78
2023-04-19T20:15:16.614Z,7.38
2023-04-19T20:17:44.634Z,7.95
2023-04-19T20:20:13.655Z,7.30
2023-04-19T20:22:42.938Z,6.00
2023-04-19T20:25:13.153Z,8.07
2023-04-19T20:27:41.260Z,4.13
2023-04-19T20:30:10.737Z,5.93
2023-04-19T20:32:42.455Z,5.30
2023-04-19T20:35:12.718Z,5.28
2023-04-19T20:37:42.075Z,4.30
2023-04-19T20:40:12.522Z,5.07
2023-04-19T20:42:41.351Z,4.00
2023-04-19T20:45:10.948Z,6.00
2023-04-19T20:47:39.475Z,4.43
2023-04-19T20:50:08.349Z,3.83
2023-04-19T20:52:36.555Z,5.30
2023-04-19T20:55:06.585Z,6.60
2023-04-19T20:57:34.515Z,3.20
2023-04-19T21:00:02.454Z,3.97
2023-04-19T21:02:30.559Z,4.75
2023-04-19T21:04:58.527Z,4.75
2023-04-19T21:07:26.484Z,6.75
2023-04-19T21:09:54.451Z,5.13
2023-04-19T21:12:23.785Z,4.40
2023-04-19T21:14:52.859Z,3.40
2023-04-19T21:17:21.448Z,4.55
2023-04-19T21:19:49.439Z,5.18
2023-04-19T21:22:17.387Z,5.30
2023-04-19T21:24:45.268Z,4.65
2023-04-19T21:27:13.208Z,5.03
2023-04-19T21:29:42.488Z,8.25
2023-04-19T21:32:10.414Z,6.15
2023-04-19T21:34:38.379Z,5.97
2023-04-19T21:37:06.363Z,5.65
2023-04-19T21:39:34.271Z,6.90
2023-04-19T21:42:02.298Z,9.48
2023-04-19T21:44:30.272Z,7.50
2023-04-19T21:46:59.682Z,9.15
2023-04-19T21:49:27.695Z,7.85
2023-04-19T21:51:56.889Z,7.57
2023-04-19T21:54:33.501Z,6.63
2023-04-19T21:57:02.616Z,7.30
2023-04-19T21:59:30.943Z,6.72
2023-04-19T22:02:00.810Z,8.32
2023-04-19T22:04:30.980Z,7.60
2023-04-19T22:07:02.114Z,8.48
2023-04-19T22:09:31.125Z,7.53
2023-04-19T22:12:00.120Z,8.20
2023-04-19T22:14:28.493Z,8.18
2023-04-19T22:16:56.655Z,8.32
2023-04-19T22:19:26.153Z,9.23
2023-04-19T22:21:55.139Z,9.60
2023-04-19T22:24:23.322Z,7.35
2023-04-19T22:26:53.063Z,7.47
2023-04-19T22:29:21.469Z,7.35
2023-04-19T22:31:49.488Z,11.02
2023-04-19T22:34:17.453Z,7.78
2023-04-19T22:36:46.879Z,7.63
2023-04-19T22:39:16.051Z,8.40
2023-04-19T22:41:44.167Z,6.97
2023-04-19T22:44:12.146Z,7.47
2023-04-19T22:46:40.172Z,7.50
2023-04-19T22:49:10.097Z,9.23
2023-04-19T22:51:38.416Z,11.07
2023-04-19T22:54:07.725Z,8.95
2023-04-19T22:56:35.829Z,9.25
2023-04-19T22:59:03.823Z,8.55
2023-04-19T23:01:31.832Z,9.20
2023-04-19T23:03:59.797Z,8.82
2023-04-19T23:06:29.083Z,8.65
2023-04-19T23:08:57.367Z,8.05
2023-04-19T23:11:26.939Z,6.78
2023-04-19T23:13:54.922Z,7.07
2023-04-19T23:16:25.336Z,10.35
2023-04-19T23:18:53.325Z,7.68
2023-04-19T23:21:21.235Z,6.70
2023-04-19T23:23:49.174Z,7.63
2023-04-19T23:26:17.115Z,8.93
2023-04-19T23:28:46.442Z,6.80
2023-04-19T23:31:14.378Z,7.03
2023-04-19T23:33:42.280Z,6.82
2023-04-19T23:36:10.369Z,8.93
2023-04-19T23:38:38.261Z,6.68
2023-04-19T23:41:06.596Z,10.75
2023-04-19T23:43:34.497Z,8.82
2023-04-19T23:46:03.979Z,9.18
2023-04-19T23:48:31.898Z,9.63
2023-04-19T23:50:59.805Z,11.52
2023-04-19T23:53:27.699Z,10.63
2023-04-19T23:55:55.654Z,9.02
2023-04-19T23:58:23.588Z,10.45
